Time;durP1;ratioP1;P1;durP2;ratioP2;P2;SDS_P1;SDS_P2;PMS_P1;PMS_P2;Temp;Humidity;BMP_temperature;BMP_pressure;BME280_temperature;BME280_humidity;BME280_pressure;Samples;Min_cycle;Max_cycle;Signal;HPM_P1;HPM_P2
2023/01/28 00:01:16;;;;;;;14.73;7.10;;;;;;;-1.26;100.00;99373.19;4200262;28;20123;-74
2023/01/28 00:03:16;;;;;;;11.95;6.65;;;;;;;-1.29;100.00;99381.91;4201036;28;20443;-74
2023/01/28 00:05:16;;;;;;;10.40;6.45;;;;;;;-1.29;100.00;99394.66;4199325;28;20055;-74
2023/01/28 00:07:18;;;;;;;14.98;7.55;;;;;;;-1.31;100.00;99396.84;4199496;28;20052;-74
2023/01/28 00:09:18;;;;;;;10.88;6.00;;;;;;;-1.32;100.00;99379.75;4203407;28;20036;-74
2023/01/28 00:11:19;;;;;;;11.88;6.28;;;;;;;-1.31;100.00;99380.56;4199847;28;20075;-74
2023/01/28 00:13:19;;;;;;;12.02;6.70;;;;;;;-1.30;100.00;99374.03;4204637;28;20048;-74
2023/01/28 00:15:19;;;;;;;12.50;6.15;;;;;;;-1.35;100.00;99377.56;4210476;28;20040;-74
2023/01/28 00:17:20;;;;;;;11.65;5.90;;;;;;;-1.30;100.00;99379.47;4211768;28;20127;-74
2023/01/28 00:19:20;;;;;;;14.27;6.60;;;;;;;-1.32;100.00;99376.22;4204224;28;20473;-74
2023/01/28 00:21:20;;;;;;;13.02;6.03;;;;;;;-1.31;100.00;99369.69;4210531;28;20084;-74
2023/01/28 00:23:21;;;;;;;15.88;6.40;;;;;;;-1.34;100.00;99375.66;4218452;28;20044;-74
2023/01/28 00:25:21;;;;;;;12.35;6.47;;;;;;;-1.34;100.00;99381.09;4202563;28;20279;-74
2023/01/28 00:27:21;;;;;;;11.68;5.80;;;;;;;-1.35;100.00;99376.75;4204469;28;20090;-74
2023/01/28 00:29:22;;;;;;;12.55;6.10;;;;;;;-1.39;100.00;99376.53;4211591;28;20483;-74
2023/01/28 00:31:26;;;;;;;11.40;5.82;;;;;;;-1.34;100.00;99373.78;4210957;28;20388;-75
2023/01/28 00:33:28;;;;;;;10.45;5.50;;;;;;;-1.33;100.00;99383.53;4203374;28;20040;-74
2023/01/28 00:35:28;;;;;;;12.05;6.43;;;;;;;-1.32;100.00;99379.75;4205206;28;20040;-74
2023/01/28 00:37:29;;;;;;;9.57;5.80;;;;;;;-1.33;100.00;99371.88;4208433;28;20580;-74
2023/01/28 00:39:29;;;;;;;10.90;6.43;;;;;;;-1.33;100.00;99377.28;4204073;28;20328;-74
2023/01/28 00:41:29;;;;;;;13.23;5.70;;;;;;;-1.31;100.00;99380.56;4203567;28;20071;-74
2023/01/28 00:43:30;;;;;;;10.60;6.10;;;;;;;-1.32;100.00;99377.03;4202824;28;20075;-74
2023/01/28 00:45:30;;;;;;;15.38;6.60;;;;;;;-1.38;100.00;99375.44;4213621;28;20051;-74
2023/01/28 00:47:30;;;;;;;11.57;6.47;;;;;;;-1.35;100.00;99385.72;4204384;28;20091;-74
2023/01/28 00:49:30;;;;;;;12.13;6.63;;;;;;;-1.31;100.00;99383.28;4204286;28;20071;-74
2023/01/28 00:51:31;;;;;;;12.07;6.07;;;;;;;-1.34;100.00;99367.53;4220169;28;20075;-75
2023/01/28 00:53:33;;;;;;;12.57;6.25;;;;;;;-1.34;100.00;99390.06;4211028;28;20071;-74
2023/01/28 00:55:34;;;;;;;12.55;5.65;;;;;;;-1.34;100.00;99389.25;4203595;28;20051;-74
2023/01/28 00:57:34;;;;;;;11.18;6.30;;;;;;;-1.35;100.00;99382.19;4208837;28;20403;-74
2023/01/28 00:59:34;;;;;;;10.65;6.22;;;;;;;-1.35;100.00;99383.00;4209820;28;20052;-74
2023/01/28 01:01:34;;;;;;;11.80;6.45;;;;;;;-1.31;100.00;99383.28;4210189;27;20048;-75
2023/01/28 01:03:35;;;;;;;17.58;6.65;;;;;;;-1.37;100.00;99374.34;4217526;28;20047;-74
2023/01/28 01:05:35;;;;;;;16.85;5.95;;;;;;;-1.32;100.00;99379.75;4209420;27;20158;-74
2023/01/28 01:07:42;;;;;;;11.82;5.95;;;;;;;-1.35;100.00;99380.28;4203309;28;20105;-75
2023/01/28 01:09:42;;;;;;;12.35;6.47;;;;;;;-1.36;100.00;99375.16;4205923;28;20044;-74
2023/01/28 01:11:42;;;;;;;12.20;6.43;;;;;;;-1.37;100.00;99382.47;4203615;28;20047;-74
2023/01/28 01:13:43;;;;;;;11.88;6.68;;;;;;;-1.38;100.00;99370.00;4206167;28;20434;-74
2023/01/28 01:15:43;;;;;;;10.13;5.85;;;;;;;-1.39;100.00;99378.44;4210297;28;20116;-74
2023/01/28 01:17:46;;;;;;;13.05;6.47;;;;;;;-1.36;100.00;99380.56;4209672;28;20283;-74
2023/01/28 01:19:47;;;;;;;12.23;6.38;;;;;;;-1.40;100.00;99372.19;4203147;28;20052;-74
2023/01/28 01:21:49;;;;;;;14.85;7.10;;;;;;;-1.39;100.00;99376.53;4203667;28;20820;-74
2023/01/28 01:23:50;;;;;;;14.10;7.35;;;;;;;-1.40;100.00;99366.75;4199603;28;20327;-74
2023/01/28 01:25:51;;;;;;;12.73;6.57;;;;;;;-1.42;100.00;99375.16;4208913;28;20074;-74
2023/01/28 01:27:51;;;;;;;13.40;6.35;;;;;;;-1.42;100.00;99371.63;4205418;28;20032;-74
2023/01/28 01:29:51;;;;;;;13.07;6.80;;;;;;;-1.39;100.00;99370.28;4211817;28;20460;-74
2023/01/28 01:31:52;;;;;;;13.60;7.10;;;;;;;-1.39;100.00;99378.44;4218763;28;20035;-74
2023/01/28 01:33:52;;;;;;;14.90;6.60;;;;;;;-1.41;100.00;99370.53;4212859;28;20063;-74
2023/01/28 01:35:56;;;;;;;13.95;7.05;;;;;;;-1.40;100.00;99369.47;4203120;28;20359;-74
2023/01/28 01:37:56;;;;;;;11.73;7.28;;;;;;;-1.38;100.00;99364.56;4203152;28;20271;-75
2023/01/28 01:39:56;;;;;;;12.35;6.60;;;;;;;-1.42;100.00;99383.28;4211179;28;20055;-74
2023/01/28 01:41:57;;;;;;;13.93;6.85;;;;;;;-1.46;100.00;99382.25;4203084;28;20040;-74
2023/01/28 01:44:00;;;;;;;17.33;6.72;;;;;;;-1.44;100.00;99376.53;4202823;28;20051;-74
2023/01/28 01:46:01;;;;;;;11.23;6.28;;;;;;;-1.44;100.00;99380.06;4202804;28;20051;-74
2023/01/28 01:48:06;;;;;;;16.52;6.13;;;;;;;-1.47;100.00;99385.25;4202580;28;20472;-75
2023/01/28 01:50:17;;;;;;;13.05;6.47;;;;;;;-1.46;100.00;99384.97;4202812;28;20716;-74
2023/01/28 01:52:22;;;;;;;10.02;5.97;;;;;;;-1.44;100.00;99385.47;4202981;28;20314;-74
2023/01/28 01:54:27;;;;;;;15.63;6.47;;;;;;;-1.47;100.00;99386.06;4217456;28;20054;-75
2023/01/28 01:56:34;;;;;;;13.20;6.65;;;;;;;-1.44;100.00;99392.81;4212534;28;20044;-74
2023/01/28 01:58:38;;;;;;;15.18;6.78;;;;;;;-1.43;100.00;99389.81;4201767;28;20036;-74
2023/01/28 02:00:40;;;;;;;11.85;6.57;;;;;;;-1.41;100.00;99392.25;4202301;28;20040;-74
2023/01/28 02:02:47;;;;;;;19.33;6.32;;;;;;;-1.39;100.00;99389.28;4205819;28;20040;-74
2023/01/28 02:04:47;;;;;;;11.25;5.88;;;;;;;-1.43;100.00;99408.81;4217426;28;20463;-74
2023/01/28 02:06:48;;;;;;;12.32;6.47;;;;;;;-1.43;100.00;99391.72;4205488;28;20075;-74
2023/01/28 02:08:48;;;;;;;15.60;6.72;;;;;;;-1.47;100.00;99402.34;4202572;28;20036;-74
2023/01/28 02:11:01;;;;;;;12.57;6.57;;;;;;;-1.47;100.00;99415.91;4201516;28;20058;-74
2023/01/28 02:13:01;;;;;;;9.13;5.55;;;;;;;-1.45;100.00;99402.88;4207548;28;20136;-74
2023/01/28 02:15:08;;;;;;;9.80;6.00;;;;;;;-1.47;100.00;99405.06;4215150;28;20331;-74
2023/01/28 02:17:08;;;;;;;9.50;5.25;;;;;;;-1.44;100.00;99406.38;4202532;28;20056;-74
2023/01/28 02:19:11;;;;;;;9.98;5.72;;;;;;;-1.45;100.00;99410.19;4216226;28;20086;-74
2023/01/28 02:21:25;;;;;;;17.10;5.85;;;;;;;-1.46;100.00;99408.56;4217672;28;20462;-74
2023/01/28 02:23:31;;;;;;;11.63;5.82;;;;;;;-1.47;100.00;99421.34;4211309;28;20075;-74
2023/01/28 02:26:09;;;;;;;13.63;6.15;;;;;;;-1.45;100.00;99423.78;4202674;28;20353;-74
2023/01/28 02:28:26;;;;;;;10.23;5.25;;;;;;;-1.43;100.00;99414.25;4201695;28;20480;-74
2023/01/28 02:30:32;;;;;;;13.18;5.65;;;;;;;-1.44;100.00;99422.69;4217559;28;20047;-74
2023/01/28 02:32:44;;;;;;;10.13;5.75;;;;;;;-1.39;100.00;99430.00;4213199;28;20051;-74
2023/01/28 02:34:59;;;;;;;10.88;5.03;;;;;;;-1.42;100.00;99429.44;4220751;28;20487;-74
2023/01/28 02:37:14;;;;;;;13.35;5.95;;;;;;;-1.46;100.00;99425.66;4209918;28;20264;-74
2023/01/28 02:39:21;;;;;;;13.10;5.38;;;;;;;-1.49;100.00;99426.22;4221814;27;20050;-74
2023/01/28 02:41:27;;;;;;;10.35;5.53;;;;;;;-1.53;100.00;99427.84;4217877;28;20484;-74
2023/01/28 02:43:39;;;;;;;9.73;5.60;;;;;;;-1.51;100.00;99435.72;4208414;28;20046;-74
2023/01/28 02:47:59;;;;;;;10.40;5.10;;;;;;;-1.56;100.00;99431.13;4218306;28;20067;-74
2023/01/28 02:50:03;;;;;;;12.43;5.30;;;;;;;-1.53;100.00;99430.56;4220888;28;20044;-75
2023/01/28 02:55:17;;;;;;;8.20;4.32;;;;;;;-1.53;100.00;99433.28;4205697;28;20899;-74
2023/01/28 02:57:31;;;;;;;9.95;4.13;;;;;;;-1.54;100.00;99428.13;4205653;28;20040;-74
2023/01/28 02:59:53;;;;;;;10.77;4.63;;;;;;;-1.54;100.00;99428.13;4205292;28;20396;-74
2023/01/28 03:02:12;;;;;;;11.15;5.30;;;;;;;-1.58;100.00;99427.03;4216942;28;20428;-74
2023/01/28 03:04:22;;;;;;;11.13;4.65;;;;;;;-1.58;100.00;99438.72;4203995;28;20039;-74
2023/01/28 03:06:28;;;;;;;10.43;5.20;;;;;;;-1.60;100.00;99435.47;4212878;28;20035;-74
2023/01/28 03:37:47;;;;;;;9.63;4.40;;;;;;;-1.65;100.00;99464.53;4220008;28;20141;-74
2023/01/28 03:39:47;;;;;;;6.30;4.13;;;;;;;-1.66;100.00;99452.84;4213294;28;20447;-74
2023/01/28 03:42:08;;;;;;;9.80;4.50;;;;;;;-1.64;100.00;99456.13;4219566;28;20546;-74
2023/01/28 03:46:27;;;;;;;9.73;5.28;;;;;;;-1.65;100.00;99468.06;4204703;28;20489;-74
2023/01/28 03:48:28;;;;;;;7.25;4.53;;;;;;;-1.66;100.00;99471.84;4204366;28;20044;-74
2023/01/28 03:50:29;;;;;;;13.00;5.93;;;;;;;-1.60;100.00;99464.50;4204635;28;20051;-74
2023/01/28 03:52:31;;;;;;;10.00;5.68;;;;;;;-1.64;100.00;99463.44;4203975;28;20036;-75
2023/01/28 03:54:31;;;;;;;11.55;5.00;;;;;;;-1.67;100.00;99461.25;4205848;28;20493;-74
2023/01/28 03:56:36;;;;;;;9.65;5.57;;;;;;;-1.67;100.00;99469.41;4217360;28;20047;-74
2023/01/28 03:58:51;;;;;;;8.90;5.22;;;;;;;-1.66;100.00;99468.31;4219948;28;20040;-75
2023/01/28 04:00:52;;;;;;;9.60;5.55;;;;;;;-1.66;100.00;99474.56;4219880;28;20499;-74
2023/01/28 04:02:52;;;;;;;12.45;5.97;;;;;;;-1.64;100.00;99477.00;4218073;28;20097;-74
2023/01/28 04:04:53;;;;;;;13.27;5.90;;;;;;;-1.65;100.00;99461.81;4216472;28;20048;-74
2023/01/28 04:06:54;;;;;;;10.80;5.97;;;;;;;-1.65;100.00;99468.06;4219623;28;20550;-74
2023/01/28 04:08:58;;;;;;;11.10;5.65;;;;;;;-1.60;100.00;99464.50;4214389;28;20295;-74
2023/01/28 04:11:14;;;;;;;11.27;5.45;;;;;;;-1.63;100.00;99471.31;4219280;28;20314;-74
2023/01/28 04:13:14;;;;;;;12.15;6.28;;;;;;;-1.62;100.00;99474.84;4220031;28;20043;-74
2023/01/28 04:15:15;;;;;;;13.70;6.10;;;;;;;-1.65;100.00;99472.69;4205466;28;20074;-74
2023/01/28 04:17:16;;;;;;;12.85;6.30;;;;;;;-1.66;100.00;99477.25;4219356;28;20494;-74
2023/01/28 04:19:16;;;;;;;11.23;5.88;;;;;;;-1.73;100.00;99469.44;4218656;27;20039;-74
2023/01/28 04:21:16;;;;;;;14.52;6.93;;;;;;;-1.76;100.00;99474.56;4220495;28;20047;-74
2023/01/28 04:23:16;;;;;;;10.85;5.85;;;;;;;-1.78;100.00;99477.56;4218510;27;20130;-74
2023/01/28 04:25:17;;;;;;;13.70;6.95;;;;;;;-1.78;100.00;99472.13;4218981;28;20048;-74
2023/01/28 04:27:17;;;;;;;13.65;7.28;;;;;;;-1.78;100.00;99463.19;4205012;28;20058;-74
2023/01/28 04:29:17;;;;;;;12.65;6.38;;;;;;;-1.79;100.00;99467.00;4211221;28;20439;-74
2023/01/28 04:31:18;;;;;;;12.23;6.45;;;;;;;-1.78;100.00;99463.19;4219092;28;20150;-74
2023/01/28 04:33:18;;;;;;;12.85;6.90;;;;;;;-1.80;100.00;99466.19;4218109;28;20047;-74
2023/01/28 04:35:18;;;;;;;12.63;6.70;;;;;;;-1.74;100.00;99472.38;4204906;28;20225;-74
2023/01/28 04:37:19;;;;;;;11.65;6.68;;;;;;;-1.68;100.00;99470.50;4203198;28;20052;-74
2023/01/28 04:39:19;;;;;;;12.55;6.35;;;;;;;-1.70;100.00;99468.06;4210349;28;20051;-74
2023/01/28 04:41:20;;;;;;;12.25;6.10;;;;;;;-1.68;100.00;99476.72;4203671;28;20392;-74
2023/01/28 04:43:20;;;;;;;11.98;6.63;;;;;;;-1.74;100.00;99472.38;4209688;28;20044;-74
2023/01/28 04:45:21;;;;;;;13.00;7.72;;;;;;;-1.75;100.00;99474.28;4218621;28;20055;-74
2023/01/28 04:47:21;;;;;;;12.98;6.85;;;;;;;-1.78;100.00;99476.75;4218798;27;20075;-74
2023/01/28 04:49:21;;;;;;;15.18;7.25;;;;;;;-1.77;100.00;99483.78;4209561;28;20096;-74
2023/01/28 04:51:22;;;;;;;13.43;6.03;;;;;;;-1.75;100.00;99474.28;4218753;28;20179;-74
2023/01/28 04:53:22;;;;;;;13.68;6.75;;;;;;;-1.77;100.00;99481.91;4211397;28;20072;-74
2023/01/28 04:55:23;;;;;;;15.50;7.10;;;;;;;-1.76;100.00;99478.09;4219265;28;20043;-74
2023/01/28 04:57:24;;;;;;;11.77;6.65;;;;;;;-1.73;100.00;99482.19;4217926;28;20051;-74
2023/01/28 04:59:24;;;;;;;12.20;7.03;;;;;;;-1.72;100.00;99478.38;4218606;28;20066;-74
2023/01/28 05:01:25;;;;;;;12.18;6.75;;;;;;;-1.78;100.00;99482.97;4214207;28;20073;-74
2023/01/28 05:03:26;;;;;;;11.73;7.00;;;;;;;-1.77;100.00;99487.31;4211474;28;20047;-74
2023/01/28 05:05:26;;;;;;;12.32;7.10;;;;;;;-1.78;100.00;99485.69;4218133;28;20074;-74
2023/01/28 05:07:26;;;;;;;12.30;6.53;;;;;;;-1.78;100.00;99479.47;4217306;28;20205;-74
2023/01/28 05:09:27;;;;;;;14.35;7.30;;;;;;;-1.71;100.00;99496.28;4206064;28;20043;-74
2023/01/28 05:11:27;;;;;;;12.60;7.15;;;;;;;-1.72;100.00;99483.81;4205767;28;20174;-75
2023/01/28 05:13:27;;;;;;;13.00;6.47;;;;;;;-1.72;100.00;99490.03;4209504;28;20130;-74
2023/01/28 05:15:27;;;;;;;12.93;6.57;;;;;;;-1.71;100.00;99485.44;4208120;28;20136;-74
2023/01/28 05:17:28;;;;;;;10.55;6.28;;;;;;;-1.74;100.00;99488.66;4210922;28;20643;-74
2023/01/28 05:19:28;;;;;;;11.52;6.18;;;;;;;-1.79;100.00;99489.50;4218465;28;20074;-74
2023/01/28 05:21:28;;;;;;;12.48;6.55;;;;;;;-1.80;100.00;99487.06;4216574;28;20084;-74
2023/01/28 05:23:29;;;;;;;13.95;6.75;;;;;;;-1.80;100.00;99497.91;4202825;28;20587;-74
2023/01/28 05:25:29;;;;;;;12.27;6.68;;;;;;;-1.80;100.00;99484.34;4203116;28;20072;-74
2023/01/28 05:27:29;;;;;;;10.95;6.22;;;;;;;-1.79;100.00;99489.50;4203138;28;20135;-74
2023/01/28 05:29:30;;;;;;;12.75;6.75;;;;;;;-1.77;100.00;99491.94;4203244;28;20451;-74
2023/01/28 05:31:30;;;;;;;12.80;6.43;;;;;;;-1.78;100.00;99493.84;4202677;28;20564;-74
2023/01/28 05:33:30;;;;;;;10.10;6.10;;;;;;;-1.79;100.00;99500.34;4202554;28;20047;-74
2023/01/28 05:35:31;;;;;;;12.55;6.75;;;;;;;-1.85;100.00;99501.44;4216282;28;20047;-75
2023/01/28 05:37:31;;;;;;;12.70;6.45;;;;;;;-1.80;100.00;99506.88;4212494;28;20455;-74
2023/01/28 05:39:31;;;;;;;12.27;6.25;;;;;;;-1.88;100.00;99495.75;4203319;28;20715;-74
2023/01/28 05:41:32;;;;;;;12.88;6.60;;;;;;;-1.90;100.00;99496.03;4202749;28;20058;-74
2023/01/28 05:43:33;;;;;;;12.52;6.45;;;;;;;-1.90;100.00;99501.44;4215146;28;20047;-74
2023/01/28 05:45:33;;;;;;;12.43;6.10;;;;;;;-1.91;100.00;99505.22;4216822;28;20092;-74
2023/01/28 05:47:33;;;;;;;12.90;6.78;;;;;;;-1.92;100.00;99509.03;4217625;28;20138;-74
2023/01/28 05:49:34;;;;;;;12.52;5.78;;;;;;;-1.89;100.00;99507.69;4218615;28;20043;-75
2023/01/28 05:51:34;;;;;;;9.90;5.95;;;;;;;-1.84;100.00;99508.47;4210885;28;20384;-74
2023/01/28 05:53:34;;;;;;;12.75;6.47;;;;;;;-1.85;100.00;99515.00;4217045;28;20372;-74
2023/01/28 05:55:35;;;;;;;11.75;5.88;;;;;;;-1.87;100.00;99521.78;4216049;28;20051;-74
2023/01/28 05:57:35;;;;;;;14.80;5.70;;;;;;;-1.91;100.00;99521.50;4208833;28;20043;-75
2023/01/28 05:59:36;;;;;;;11.07;5.78;;;;;;;-1.91;100.00;99521.50;4204290;28;20048;-74
2023/01/28 06:01:36;;;;;;;13.00;5.57;;;;;;;-1.94;100.00;99516.63;4202481;28;20044;-74
2023/01/28 06:03:37;;;;;;;10.90;6.20;;;;;;;-1.92;100.00;99521.78;4202346;28;20044;-75
2023/01/28 06:05:37;;;;;;;13.63;5.82;;;;;;;-1.89;100.00;99526.69;4202943;28;20515;-75
2023/01/28 06:07:37;;;;;;;10.20;5.70;;;;;;;-1.92;100.00;99533.44;4205041;28;20224;-74
2023/01/28 06:09:38;;;;;;;10.82;5.57;;;;;;;-1.92;100.00;99529.91;4207983;28;20526;-74
2023/01/28 06:11:38;;;;;;;11.85;5.38;;;;;;;-1.96;100.00;99526.13;4212778;28;20616;-74
2023/01/28 06:13:40;;;;;;;15.07;6.30;;;;;;;-1.90;100.00;99536.72;4216620;28;20387;-75
2023/01/28 06:15:40;;;;;;;10.75;5.70;;;;;;;-1.90;100.00;99528.56;4217718;28;20035;-75
2023/01/28 06:17:41;;;;;;;8.63;4.88;;;;;;;-1.89;100.00;99524.78;4218789;28;20134;-74
2023/01/28 06:19:41;;;;;;;9.45;5.55;;;;;;;-1.88;100.00;99531.81;4213920;28;20044;-74
2023/01/28 06:21:42;;;;;;;8.20;4.55;;;;;;;-1.92;100.00;99522.59;4202229;28;20060;-74
2023/01/28 06:23:42;;;;;;;9.50;5.40;;;;;;;-1.92;100.00;99533.44;4212225;28;20032;-74
2023/01/28 06:25:42;;;;;;;10.82;5.25;;;;;;;-1.91;100.00;99536.97;4214188;28;20125;-74
2023/01/28 06:27:43;;;;;;;9.38;5.60;;;;;;;-1.92;100.00;99538.88;4202623;28;20072;-74
2023/01/28 06:29:43;;;;;;;8.32;5.22;;;;;;;-1.90;100.00;99544.00;4205338;28;20039;-75
2023/01/28 06:31:44;;;;;;;8.73;5.18;;;;;;;-1.94;100.00;99541.03;4218625;28;20363;-74
2023/01/28 06:33:44;;;;;;;10.73;5.15;;;;;;;-1.95;100.00;99549.44;4216101;28;20084;-75
2023/01/28 06:35:45;;;;;;;7.97;4.93;;;;;;;-1.93;100.00;99544.56;4211751;28;20059;-74
2023/01/28 06:37:45;;;;;;;8.90;5.30;;;;;;;-1.96;100.00;99548.63;4202925;28;20044;-75
2023/01/28 06:39:45;;;;;;;14.32;5.80;;;;;;;-1.99;100.00;99555.41;4217825;28;20043;-74
2023/01/28 06:41:46;;;;;;;10.65;5.32;;;;;;;-1.98;100.00;99548.91;4217353;28;20051;-74
2023/01/28 06:43:46;;;;;;;10.32;5.65;;;;;;;-1.96;100.00;99551.34;4217388;28;20068;-74
2023/01/28 06:45:47;;;;;;;12.52;5.60;;;;;;;-1.99;100.00;99544.56;4206296;28;20190;-74
2023/01/28 06:47:47;;;;;;;9.63;5.20;;;;;;;-1.96;100.00;99551.34;4202112;28;20048;-75
2023/01/28 06:49:48;;;;;;;10.35;5.38;;;;;;;-1.99;100.00;99550.00;4202763;28;20070;-74
2023/01/28 06:51:48;;;;;;;10.77;5.97;;;;;;;-1.96;100.00;99550.53;4214742;28;20040;-74
2023/01/28 06:53:49;;;;;;;8.75;5.57;;;;;;;-1.96;100.00;99556.78;4217139;28;20042;-75
2023/01/28 06:55:49;;;;;;;18.73;7.50;;;;;;;-1.98;100.00;99557.03;4203617;28;20083;-74
2023/01/28 06:57:49;;;;;;;12.85;6.00;;;;;;;-2.00;100.00;99559.19;4208380;28;20051;-74
2023/01/28 06:59:50;;;;;;;16.95;6.00;;;;;;;-1.99;100.00;99560.84;4202004;28;20052;-74
2023/01/28 07:01:50;;;;;;;12.10;6.15;;;;;;;-2.01;100.00;99565.69;4202349;28;20086;-74
2023/01/28 07:03:50;;;;;;;9.48;5.22;;;;;;;-2.01;100.00;99575.75;4205630;28;20650;-74
2023/01/28 07:05:51;;;;;;;15.35;6.22;;;;;;;-2.04;100.00;99571.69;4216901;28;20096;-74
2023/01/28 07:07:51;;;;;;;10.98;6.72;;;;;;;-1.99;100.00;99571.69;4217252;28;20502;-74
2023/01/28 07:09:52;;;;;;;11.40;5.85;;;;;;;-1.94;100.00;99567.34;4210196;28;20430;-74
2023/01/28 07:11:52;;;;;;;13.32;7.20;;;;;;;-1.95;100.00;99563.81;4214744;28;20323;-74
2023/01/28 07:13:52;;;;;;;12.68;6.43;;;;;;;-1.98;100.00;99567.91;4216560;28;20156;-74
2023/01/28 07:15:53;;;;;;;13.95;6.45;;;;;;;-1.99;100.00;99568.97;4209780;28;20138;-74
2023/01/28 07:17:53;;;;;;;12.57;6.18;;;;;;;-2.01;100.00;99557.56;4213017;28;20039;-74
2023/01/28 07:19:53;;;;;;;9.75;6.00;;;;;;;-2.02;100.00;99571.41;4210401;28;20051;-74
2023/01/28 07:21:57;;;;;;;13.88;6.75;;;;;;;-2.02;100.00;99569.50;4212916;27;20040;-75
2023/01/28 07:23:57;;;;;;;11.45;5.90;;;;;;;-2.02;100.00;99563.25;4219906;28;20437;-74
2023/01/28 07:26:02;;;;;;;12.82;7.05;;;;;;;-2.01;100.00;99564.88;4220732;27;20071;-74
2023/01/28 07:28:02;;;;;;;12.15;6.88;;;;;;;-2.04;100.00;99568.97;4209165;28;20043;-74
2023/01/28 07:30:03;;;;;;;14.88;7.07;;;;;;;-2.02;100.00;99568.69;4206390;28;20035;-75
2023/01/28 07:32:06;;;;;;;9.93;6.13;;;;;;;-2.01;100.00;99567.59;4207814;28;20031;-75
2023/01/28 07:34:07;;;;;;;12.50;6.55;;;;;;;-2.01;100.00;99570.31;4201853;28;20015;-74
2023/01/28 07:36:08;;;;;;;12.83;6.83;;;;;;;-2.02;100.00;99564.06;4211614;28;20091;-74
2023/01/28 07:38:08;;;;;;;13.02;7.05;;;;;;;-1.98;100.00;99577.94;4208294;28;20073;-74
2023/01/28 07:40:09;;;;;;;12.63;7.22;;;;;;;-2.00;100.00;99574.66;4210443;28;20460;-74
2023/01/28 07:42:10;;;;;;;14.48;8.40;;;;;;;-1.96;100.00;99574.94;4209829;28;20028;-74
2023/01/28 07:44:10;;;;;;;12.05;6.57;;;;;;;-1.97;100.00;99584.97;4203478;28;20442;-74
2023/01/28 07:46:11;;;;;;;10.52;5.88;;;;;;;-1.99;100.00;99577.13;4209810;28;20060;-74
2023/01/28 07:48:12;;;;;;;15.68;6.68;;;;;;;-2.02;100.00;99591.19;4210581;28;20229;-74
2023/01/28 07:50:14;;;;;;;13.48;6.60;;;;;;;-2.01;100.00;99589.31;4209459;28;20433;-74
2023/01/28 07:52:14;;;;;;;10.33;6.60;;;;;;;-1.96;100.00;99593.94;4208632;28;20020;-74
2023/01/28 07:54:15;;;;;;;13.93;6.38;;;;;;;-1.98;100.00;99597.72;4208091;28;20259;-74
2023/01/28 07:56:16;;;;;;;10.23;5.95;;;;;;;-1.97;100.00;99595.84;4207310;28;20507;-74
2023/01/28 07:58:16;;;;;;;12.52;6.88;;;;;;;-1.95;100.00;99593.66;4207379;28;20028;-74
2023/01/28 08:00:17;;;;;;;10.52;6.07;;;;;;;-2.00;100.00;99591.75;4209951;28;20035;-74
2023/01/28 08:02:17;;;;;;;10.95;7.45;;;;;;;-1.97;100.00;99593.13;4206233;28;20475;-74
2023/01/28 08:04:17;;;;;;;12.88;6.78;;;;;;;-1.95;100.00;99596.38;4205924;28;20442;-74
2023/01/28 08:06:18;;;;;;;13.40;6.47;;;;;;;-1.97;100.00;99598.53;4208454;28;20020;-74
2023/01/28 08:08:18;;;;;;;11.38;5.95;;;;;;;-1.96;100.00;99600.16;4206794;28;20027;-74
2023/01/28 08:10:19;;;;;;;8.90;5.78;;;;;;;-2.02;100.00;99602.03;4209549;28;20024;-74
2023/01/28 08:12:19;;;;;;;12.35;6.43;;;;;;;-2.03;100.00;99608.56;4205681;28;20488;-74
2023/01/28 08:14:19;;;;;;;11.18;5.50;;;;;;;-2.01;100.00;99611.00;4208590;28;20107;-74
2023/01/28 08:16:20;;;;;;;10.57;5.60;;;;;;;-1.96;100.00;99604.78;4210469;28;20057;-74
2023/01/28 08:18:20;;;;;;;10.98;6.13;;;;;;;-1.93;100.00;99596.09;4204774;28;20267;-74
2023/01/28 08:20:21;;;;;;;8.88;5.40;;;;;;;-1.91;100.00;99602.88;4208910;28;20492;-74
2023/01/28 08:22:26;;;;;;;13.95;6.07;;;;;;;-1.93;100.00;99605.03;4209183;28;20052;-74
2023/01/28 08:24:26;;;;;;;10.85;6.03;;;;;;;-1.91;100.00;99597.44;4207509;28;20439;-74
2023/01/28 08:26:26;;;;;;;9.70;5.18;;;;;;;-1.90;100.00;99601.81;4208366;28;20075;-74
2023/01/28 08:28:27;;;;;;;12.27;5.65;;;;;;;-1.93;100.00;99596.09;4209323;28;20695;-74
2023/01/28 08:30:27;;;;;;;10.02;6.28;;;;;;;-1.93;100.00;99591.47;4212051;28;20039;-74
2023/01/28 08:32:29;;;;;;;10.05;5.60;;;;;;;-1.90;100.00;99596.38;4210096;28;20509;-74
2023/01/28 08:34:29;;;;;;;11.20;5.63;;;;;;;-1.91;100.00;99602.88;4205539;28;20040;-74
2023/01/28 08:36:30;;;;;;;10.27;5.70;;;;;;;-1.91;100.00;99602.88;4200890;28;20052;-74
2023/01/28 08:38:30;;;;;;;9.80;6.03;;;;;;;-1.91;100.00;99597.44;4200446;28;20130;-74
2023/01/28 08:40:31;;;;;;;11.13;6.50;;;;;;;-1.90;100.00;99604.53;4200558;28;20457;-74
2023/01/28 08:42:32;;;;;;;14.40;6.78;;;;;;;-1.84;100.00;99603.44;4202955;28;20459;-74
2023/01/28 08:44:32;;;;;;;11.95;6.22;;;;;;;-1.85;100.00;99606.41;4207132;28;20082;-74
2023/01/28 08:46:32;;;;;;;10.35;5.35;;;;;;;-1.87;100.00;99603.16;4206785;28;20044;-74
2023/01/28 08:48:33;;;;;;;12.43;5.53;;;;;;;-1.83;100.00;99610.47;4209355;28;20216;-74
2023/01/28 08:50:35;;;;;;;11.30;4.82;;;;;;;-1.81;100.00;99610.25;4206219;28;20035;-74
2023/01/28 08:52:35;;;;;;;;;;;;;;;-1.81;100.00;99607.53;4204583;28;20365;-74
2023/01/28 08:54:36;;;;;;;11.38;5.25;;;;;;;-1.82;100.00;99612.13;4203470;28;19957;-74
2023/01/28 08:56:37;;;;;;;7.85;4.63;;;;;;;-1.82;100.00;99622.16;4206885;28;20040;-74
2023/01/28 08:58:38;;;;;;;8.13;5.50;;;;;;;-1.79;100.00;99614.31;4205932;28;20035;-74
2023/01/28 09:00:39;;;;;;;7.65;4.63;;;;;;;-1.84;100.00;99613.47;4209089;28;20055;-74
2023/01/28 09:02:39;;;;;;;9.25;4.75;;;;;;;-1.83;100.00;99620.53;4202327;28;20314;-74
2023/01/28 09:04:41;;;;;;;8.25;4.43;;;;;;;-1.81;100.00;99623.81;4204695;28;20044;-74
2023/01/28 09:06:41;;;;;;;9.40;4.82;;;;;;;-1.81;100.00;99621.91;4206817;28;20327;-74
2023/01/28 09:08:41;;;;;;;13.52;7.55;;;;;;;-1.76;100.00;99618.38;4203135;28;20044;-75
2023/01/28 09:10:42;;;;;;;9.52;5.22;;;;;;;-1.74;100.00;99619.75;4209142;28;20388;-74
2023/01/28 09:12:43;;;;;;;11.95;4.60;;;;;;;-1.68;100.00;99615.13;4203392;28;20488;-74
2023/01/28 09:14:43;;;;;;;11.05;4.72;;;;;;;-1.68;100.00;99622.44;4198371;28;20045;-74
2023/01/28 09:16:43;;;;;;;8.93;4.90;;;;;;;-1.69;100.00;99624.34;4200741;28;20051;-74
2023/01/28 09:18:44;;;;;;;7.60;4.50;;;;;;;-1.62;100.00;99621.38;4203785;28;20433;-74
2023/01/28 09:20:44;;;;;;;9.75;5.50;;;;;;;-1.61;100.00;99623.00;4207306;28;20039;-74
2023/01/28 09:22:44;;;;;;;5.47;3.25;;;;;;;-1.61;100.00;99628.44;4203089;28;20263;-75
2023/01/28 09:24:45;;;;;;;8.57;3.88;;;;;;;-1.59;100.00;99637.91;4202314;28;20055;-74
2023/01/28 09:26:48;;;;;;;9.73;4.97;;;;;;;-1.58;100.00;99630.59;4200953;28;20068;-74
2023/01/28 09:28:49;;;;;;;6.00;4.05;;;;;;;-1.57;100.00;99621.34;4202462;28;20450;-74
2023/01/28 09:30:49;;;;;;;10.13;4.03;;;;;;;-1.53;100.00;99630.59;4201779;28;20064;-74
2023/01/28 09:32:51;;;;;;;6.20;4.47;;;;;;;-1.53;100.00;99630.59;4205979;28;20048;-74
2023/01/28 09:34:51;;;;;;;7.43;4.47;;;;;;;-1.51;100.00;99634.66;4205365;28;20051;-74
2023/01/28 09:36:52;;;;;;;7.03;3.67;;;;;;;-1.44;100.00;99648.78;4205300;28;20119;-74
2023/01/28 09:38:52;;;;;;;6.85;3.95;;;;;;;-1.44;100.00;99650.69;4211010;28;20444;-74
2023/01/28 09:40:54;;;;;;;7.75;4.28;;;;;;;-1.46;100.00;99645.53;4205141;28;20417;-74
2023/01/28 09:42:58;;;;;;;5.85;3.60;;;;;;;-1.44;100.00;99651.50;4201134;28;20361;-74
2023/01/28 09:45:09;;;;;;;6.38;4.15;;;;;;;-1.42;100.00;99649.34;4216304;28;20573;-74
2023/01/28 09:47:40;;;;;;;7.28;4.25;;;;;;;-1.41;100.00;99658.28;4201976;28;20081;-74
2023/01/28 09:49:45;;;;;;;8.45;4.70;;;;;;;-1.46;100.00;99652.88;4202086;28;20058;-74
2023/01/28 09:51:52;;;;;;;6.22;3.90;;;;;;;-1.46;100.00;99652.88;4218058;28;20047;-74
2023/01/28 09:53:56;;;;;;;10.77;5.28;;;;;;;-1.44;100.00;99656.13;4213127;28;20087;-74
2023/01/28 09:56:04;;;;;;;6.30;4.15;;;;;;;-1.47;100.00;99662.09;4205640;28;20071;-74
2023/01/28 09:58:12;;;;;;;8.10;4.53;;;;;;;-1.43;100.00;99668.59;4202681;28;20480;-74
2023/01/28 10:00:18;;;;;;;8.57;4.63;;;;;;;-1.47;100.00;99660.22;4207348;28;20722;-74